SKCC/CUC METAR and TAF weather

Enter ICAO airport designator
Station Type Date Time Source
SKCC METAR 2020/03/30 23:00 UTC NOAA

SKCC 302300Z 01006KT 5000 HZ FEW020 30/20 A2987


Station Type Date Time Source
SKCC Decoded METAR 2020/03/30 23:00 UTC NOAA

Cucuta / Camilo Daza, Colombia (SKCC) 07-56N 072-31W 317M
Mar 30, 2020 - 07:00 PM EDT / 2020.03.30 2300 UTC
Wind: from the N (010 degrees) at 7 MPH (6 KT):0
Visibility: 3 mile(s):0
Sky conditions: mostly clear
Weather: haze
Temperature: 86 F (30 C)
Dew Point: 68 F (20 C)
Relative Humidity: 55%
Pressure (altimeter): 29.87 in. Hg (1011 hPa)
ob: SKCC 302300Z 01006KT 5000 HZ FEW020 30/20 A2987
cycle: 23

Station Type Date Time Source
SKCC TAF 2020/03/31 06:36 UTC NOAA

TAF SKCC 310430Z 3106/0106 VRB02KT 7000 SCT015 SCT080 PROB40
TEMPO 3107/3112 5000 DZ BKN010
TEMPO 3112/3114 4000 BCFG
BECMG 3114/3116 36012KT TX31/3119Z TN23/3111Z

Example: see airport list